Time;durP1;ratioP1;P1;durP2;ratioP2;P2;SDS_P1;SDS_P2;PMS_P1;PMS_P2;Temp;Humidity;BMP_temperature;BMP_pressure;BME280_temperature;BME280_humidity;BME280_pressure;Samples;Min_cycle;Max_cycle;Signal;HPM_P1;HPM_P2
2023/11/21 00:00:53;;;;;;;4.43;3.83;;;;;;;;;;6224197;23;20413;-86
2023/11/21 00:03:55;;;;;;;5.90;4.00;;;;;;;;;;6226755;23;20432;-86
2023/11/21 00:06:30;;;;;;;4.80;3.43;;;;;;;;;;6225419;23;20392;-86
2023/11/21 00:09:25;;;;;;;5.60;3.63;;;;;;;;;;6222396;23;20503;-86
2023/11/21 00:12:04;;;;;;;3.90;3.60;;;;;;;;;;6217312;23;20469;-85
2023/11/21 00:14:46;;;;;;;6.57;4.23;;;;;;;;;;6222570;23;20432;-86
2023/11/21 00:17:19;;;;;;;4.57;3.70;;;;;;;;;;6224430;23;20429;-86
2023/11/21 00:20:05;;;;;;;6.80;3.83;;;;;;;;;;6223377;23;20478;-85
2023/11/21 00:23:13;;;;;;;5.50;4.43;;;;;;;;;;6182603;23;20405;-86
2023/11/21 00:25:57;;;;;;;6.33;4.73;;;;;;;;;;6216707;23;20412;-85
2023/11/21 00:28:41;;;;;;;7.20;5.20;;;;;;;;;;6220800;23;20934;-87
2023/11/21 00:31:31;;;;;;;6.93;5.57;;;;;;;;;;6213056;23;20447;-86
2023/11/21 00:34:13;;;;;;;6.90;5.23;;;;;;;;;;6224789;23;20425;-86
2023/11/21 00:36:49;;;;;;;12.60;5.90;;;;;;;;;;6218907;23;20405;-84
2023/11/21 00:39:38;;;;;;;6.43;5.67;;;;;;;;;;6225320;23;20413;-85
2023/11/21 00:42:21;;;;;;;5.90;5.23;;;;;;;;;;6224740;23;20435;-87
2023/11/21 00:45:03;;;;;;;6.97;6.10;;;;;;;;;;6224769;23;20465;-86
2023/11/21 00:47:48;;;;;;;;;;;;;;;;;;;;;
2023/11/21 00:53:20;;;;;;;6.50;5.80;;;;;;;;;;6209202;23;20413;-84
2023/11/21 00:56:09;;;;;;;7.80;5.60;;;;;;;;;;6227544;23;20441;-86
2023/11/21 00:59:04;;;;;;;10.00;5.77;;;;;;;;;;6223676;23;20413;-86
2023/11/21 01:01:39;;;;;;;8.50;7.50;;;;;;;;;;6224392;23;20500;-86
2023/11/21 01:04:31;;;;;;;;;;;;;;;;;;;;;
2023/11/21 01:07:22;;;;;;;8.87;6.47;;;;;;;;;;6222396;23;20448;-89
2023/11/21 01:10:03;;;;;;;7.27;6.47;;;;;;;;;;6222519;23;20477;-88
2023/11/21 01:13:15;;;;;;;;;;;;;;;;;;;;;
2023/11/21 01:15:51;;;;;;;6.67;5.97;;;;;;;;;;6220521;23;20409;-85
2023/11/21 01:18:44;;;;;;;9.83;5.60;;;;;;;;;;6218250;23;20429;-86
2023/11/21 01:21:14;;;;;;;9.13;7.00;;;;;;;;;;6217966;23;20405;-87
2023/11/21 01:23:48;;;;;;;7.03;6.20;;;;;;;;;;6211746;23;20401;-85
2023/11/21 01:26:24;;;;;;;9.50;6.47;;;;;;;;;;6216728;23;20439;-86
2023/11/21 01:29:05;;;;;;;10.30;7.13;;;;;;;;;;6218806;23;20458;-87
2023/11/21 01:31:51;;;;;;;9.87;6.87;;;;;;;;;;6213121;23;20416;-83
2023/11/21 01:34:39;;;;;;;13.00;6.50;;;;;;;;;;6212875;23;20575;-86
2023/11/21 01:37:18;;;;;;;8.03;6.10;;;;;;;;;;6214420;23;20524;-85
2023/11/21 01:39:55;;;;;;;7.73;6.60;;;;;;;;;;6231716;23;20416;-86
2023/11/21 01:42:41;;;;;;;9.67;6.33;;;;;;;;;;6231704;22;20416;-88
2023/11/21 01:45:31;;;;;;;7.97;6.37;;;;;;;;;;6223523;23;20408;-85
2023/11/21 01:48:10;;;;;;;10.23;6.80;;;;;;;;;;6212786;23;20504;-88
2023/11/21 01:50:43;;;;;;;9.20;6.03;;;;;;;;;;6230831;22;20418;-87
2023/11/21 01:53:13;;;;;;;7.20;6.50;;;;;;;;;;6233597;22;20397;-87
2023/11/21 01:56:07;;;;;;;8.70;6.30;;;;;;;;;;6233948;22;20627;-88
2023/11/21 01:58:54;;;;;;;9.13;6.63;;;;;;;;;;6230042;23;20452;-87
2023/11/21 02:01:56;;;;;;;11.73;7.60;;;;;;;;;;6225823;23;20471;-86
2023/11/21 02:04:39;;;;;;;8.93;6.27;;;;;;;;;;6102416;23;20519;-86
2023/11/21 02:07:19;;;;;;;7.30;5.83;;;;;;;;;;6216810;23;20436;-87
2023/11/21 02:10:14;;;;;;;10.77;6.50;;;;;;;;;;6175998;23;21173;-84
2023/11/21 02:13:06;;;;;;;7.50;6.10;;;;;;;;;;6210269;23;20425;-87
2023/11/21 02:15:52;;;;;;;7.70;6.97;;;;;;;;;;6211348;23;20507;-86
2023/11/21 02:18:47;;;;;;;8.77;7.20;;;;;;;;;;6210399;23;20512;-86
2023/11/21 02:21:38;;;;;;;8.73;7.00;;;;;;;;;;6211220;23;20436;-85
2023/11/21 02:24:27;;;;;;;7.47;6.70;;;;;;;;;;6211778;23;20459;-86
2023/11/21 02:27:11;;;;;;;7.87;6.73;;;;;;;;;;6210145;23;22212;-87
2023/11/21 02:29:45;;;;;;;11.73;7.73;;;;;;;;;;6211256;23;20416;-86
2023/11/21 02:32:17;;;;;;;9.20;7.60;;;;;;;;;;6217838;23;20416;-85
2023/11/21 02:35:02;;;;;;;11.23;8.30;;;;;;;;;;6227427;23;20575;-86
2023/11/21 02:37:40;;;;;;;10.90;8.90;;;;;;;;;;6209215;23;20740;-85
2023/11/21 02:40:24;;;;;;;10.47;9.00;;;;;;;;;;6209409;23;20416;-85
2023/11/21 02:43:10;;;;;;;10.70;8.60;;;;;;;;;;6145905;23;20737;-84
2023/11/21 02:46:04;;;;;;;10.10;8.43;;;;;;;;;;6123764;23;20421;-84
2023/11/21 02:48:37;;;;;;;14.30;9.50;;;;;;;;;;6124458;23;20693;-85
2023/11/21 02:54:38;;;;;;;10.73;8.60;;;;;;;;;;6146739;23;20446;-85
2023/11/21 02:57:30;;;;;;;14.70;8.90;;;;;;;;;;6131011;23;20457;-86
2023/11/21 03:00:14;;;;;;;10.70;8.77;;;;;;;;;;6123890;23;20438;-85
2023/11/21 03:03:04;;;;;;;17.77;10.60;;;;;;;;;;6123335;23;20477;-87
2023/11/21 03:05:49;;;;;;;13.20;10.90;;;;;;;;;;6120526;23;20395;-85
2023/11/21 03:08:25;;;;;;;13.23;10.20;;;;;;;;;;6133997;23;20437;-85
2023/11/21 03:11:03;;;;;;;12.20;10.00;;;;;;;;;;6140590;23;20481;-86
2023/11/21 03:13:34;;;;;;;11.80;8.93;;;;;;;;;;6193875;23;20401;-85
2023/11/21 03:16:06;;;;;;;9.80;8.63;;;;;;;;;;6210724;23;20465;-85
2023/11/21 03:19:10;;;;;;;12.60;7.70;;;;;;;;;;6212033;23;20432;-86
2023/11/21 03:22:04;;;;;;;14.77;7.90;;;;;;;;;;6207718;23;21110;-87
2023/11/21 03:24:40;;;;;;;12.00;7.00;;;;;;;;;;6209691;23;20663;-86
2023/11/21 03:27:17;;;;;;;11.77;8.57;;;;;;;;;;6209977;23;20472;-88
2023/11/21 03:30:03;;;;;;;9.27;6.97;;;;;;;;;;6212114;23;20447;-86
2023/11/21 03:32:42;;;;;;;10.43;7.70;;;;;;;;;;6222088;23;20527;-83
2023/11/21 03:35:26;;;;;;;11.77;7.93;;;;;;;;;;6224618;23;20437;-87
2023/11/21 03:38:19;;;;;;;10.87;7.37;;;;;;;;;;6224054;23;20405;-83
2023/11/21 03:40:53;;;;;;;11.33;8.00;;;;;;;;;;6223802;23;20409;-87
2023/11/21 03:43:24;;;;;;;8.80;7.60;;;;;;;;;;6223995;23;20401;-88
2023/11/21 03:45:57;;;;;;;8.53;7.63;;;;;;;;;;6226373;23;20401;-86
2023/11/21 03:48:44;;;;;;;13.10;9.23;;;;;;;;;;6225446;23;20417;-86
2023/11/21 03:51:28;;;;;;;11.60;8.60;;;;;;;;;;6225873;23;20469;-85
2023/11/21 03:54:14;;;;;;;9.53;7.70;;;;;;;;;;6226064;23;20405;-87
2023/11/21 03:57:16;;;;;;;10.80;8.00;;;;;;;;;;6214472;23;20441;-87
2023/11/21 04:00:08;;;;;;;9.87;7.83;;;;;;;;;;6200647;23;20443;-86
2023/11/21 04:03:13;;;;;;;9.87;8.50;;;;;;;;;;6226646;23;20528;-88
2023/11/21 04:06:18;;;;;;;11.00;8.10;;;;;;;;;;6216909;23;20431;-87
2023/11/21 04:09:17;;;;;;;11.50;8.20;;;;;;;;;;6227968;23;20429;-88
2023/11/21 04:12:08;;;;;;;10.30;9.07;;;;;;;;;;6227776;23;20408;-86
2023/11/21 04:14:41;;;;;;;12.57;9.80;;;;;;;;;;6224566;23;20456;-86
2023/11/21 04:17:19;;;;;;;12.80;9.17;;;;;;;;;;6220330;23;20437;-87
2023/11/21 04:20:20;;;;;;;10.80;7.87;;;;;;;;;;6220332;23;20413;-87
2023/11/21 04:23:04;;;;;;;13.57;8.53;;;;;;;;;;6224576;23;20422;-86
2023/11/21 04:25:59;;;;;;;14.50;9.20;;;;;;;;;;6226121;23;20401;-85
2023/11/21 04:28:42;;;;;;;16.80;9.53;;;;;;;;;;6224403;23;20469;-86
2023/11/21 04:31:33;;;;;;;11.50;8.93;;;;;;;;;;6218051;23;20420;-85
2023/11/21 04:34:10;;;;;;;15.20;9.00;;;;;;;;;;6222351;23;20413;-83
2023/11/21 04:37:13;;;;;;;14.27;9.90;;;;;;;;;;6217990;23;20476;-86
2023/11/21 04:39:52;;;;;;;11.33;8.20;;;;;;;;;;6225832;23;20404;-87
2023/11/21 04:42:43;;;;;;;11.53;9.30;;;;;;;;;;6198409;23;20424;-85
2023/11/21 04:45:31;;;;;;;18.33;10.60;;;;;;;;;;6224244;22;20437;-89
2023/11/21 04:48:14;;;;;;;12.60;9.03;;;;;;;;;;6224795;23;20409;-87
2023/11/21 04:51:06;;;;;;;11.97;9.00;;;;;;;;;;6208120;23;21355;-87
2023/11/21 04:57:20;;;;;;;12.30;8.00;;;;;;;;;;6224698;23;20440;-86
2023/11/21 05:00:13;;;;;;;11.73;7.87;;;;;;;;;;6214103;23;20440;-84
2023/11/21 05:03:19;;;;;;;12.33;8.03;;;;;;;;;;6210801;23;20504;-86
2023/11/21 05:06:06;;;;;;;13.23;8.10;;;;;;;;;;6182400;23;20742;-87
2023/11/21 05:08:53;;;;;;;11.63;8.60;;;;;;;;;;6211202;23;20436;-86
2023/11/21 05:11:45;;;;;;;11.90;8.13;;;;;;;;;;6209148;23;20409;-85
2023/11/21 05:14:28;;;;;;;10.43;8.00;;;;;;;;;;6210179;23;20432;-85
2023/11/21 05:17:05;;;;;;;17.17;8.23;;;;;;;;;;6208812;23;20404;-86
2023/11/21 05:20:09;;;;;;;42.60;27.93;;;;;;;;;;6209793;23;20416;-85
2023/11/21 05:22:45;;;;;;;11.43;8.33;;;;;;;;;;6210285;23;21345;-85
2023/11/21 05:28:48;;;;;;;14.90;8.50;;;;;;;;;;6182893;23;20974;-85
2023/11/21 05:31:53;;;;;;;15.27;8.30;;;;;;;;;;6205779;23;20401;-85
2023/11/21 05:34:50;;;;;;;11.67;7.77;;;;;;;;;;6202703;23;20962;-86
2023/11/21 05:37:26;;;;;;;14.83;7.57;;;;;;;;;;6205465;23;20424;-86
2023/11/21 05:40:40;;;;;;;15.47;8.47;;;;;;;;;;6194350;23;20409;-86
2023/11/21 05:43:30;;;;;;;10.87;7.77;;;;;;;;;;6199843;23;20492;-87
2023/11/21 05:46:19;;;;;;;10.13;7.60;;;;;;;;;;6209892;23;20429;-86
2023/11/21 05:49:10;;;;;;;12.10;7.40;;;;;;;;;;6210690;23;20461;-84
2023/11/21 05:52:07;;;;;;;9.93;7.60;;;;;;;;;;6210177;23;20409;-87
2023/11/21 05:54:44;;;;;;;11.40;7.57;;;;;;;;;;6210240;23;20409;-85
2023/11/21 05:57:26;;;;;;;10.10;8.03;;;;;;;;;;6208808;23;21063;-85
2023/11/21 06:00:25;;;;;;;14.37;8.07;;;;;;;;;;6209181;23;20442;-86
2023/11/21 06:03:33;;;;;;;9.63;7.00;;;;;;;;;;6208720;23;20409;-86
2023/11/21 06:06:20;;;;;;;8.70;5.50;;;;;;;;;;6198093;23;20407;-85
2023/11/21 06:09:09;;;;;;;10.43;6.70;;;;;;;;;;6216663;23;20435;-87
2023/11/21 06:11:46;;;;;;;11.00;7.43;;;;;;;;;;6222636;22;20408;-83
2023/11/21 06:14:28;;;;;;;9.10;7.40;;;;;;;;;;6210139;23;20397;-84
2023/11/21 06:17:24;;;;;;;12.50;7.60;;;;;;;;;;6207645;23;20396;-85
2023/11/21 06:20:08;;;;;;;10.80;6.90;;;;;;;;;;6212967;23;20416;-86
2023/11/21 06:23:05;;;;;;;9.43;6.77;;;;;;;;;;6207971;23;20400;-85
2023/11/21 06:25:41;;;;;;;9.80;6.67;;;;;;;;;;6207683;23;20409;-85
2023/11/21 06:28:33;;;;;;;10.77;7.70;;;;;;;;;;6193506;23;20476;-85
2023/11/21 06:31:10;;;;;;;9.23;7.07;;;;;;;;;;6208457;23;20413;-85
2023/11/21 06:33:47;;;;;;;12.17;7.27;;;;;;;;;;6214583;23;20416;-86
2023/11/21 06:36:43;;;;;;;13.33;8.40;;;;;;;;;;6209524;23;20502;-84
2023/11/21 06:39:27;;;;;;;10.27;8.03;;;;;;;;;;6209378;23;20409;-86
2023/11/21 06:42:38;;;;;;;12.23;7.30;;;;;;;;;;6209489;23;20530;-87
2023/11/21 06:45:15;;;;;;;15.87;9.10;;;;;;;;;;6209757;23;20413;-86
2023/11/21 06:48:12;;;;;;;12.70;8.47;;;;;;;;;;6208920;23;20437;-85
2023/11/21 06:50:57;;;;;;;11.00;8.17;;;;;;;;;;6212448;23;20413;-85
2023/11/21 06:54:16;;;;;;;11.40;7.47;;;;;;;;;;6213931;23;20457;-85
2023/11/21 06:56:53;;;;;;;15.47;8.63;;;;;;;;;;6224126;23;20444;-88
2023/11/21 06:59:58;;;;;;;13.67;9.03;;;;;;;;;;6227023;23;20385;-87
2023/11/21 07:02:41;;;;;;;14.70;9.13;;;;;;;;;;6215210;23;20418;-86
2023/11/21 07:05:32;;;;;;;13.30;9.90;;;;;;;;;;6211814;23;20428;-84
2023/11/21 07:11:52;;;;;;;12.07;9.00;;;;;;;;;;6196760;23;20477;-87
2023/11/21 07:14:50;;;;;;;15.43;10.63;;;;;;;;;;6222935;23;21073;-86
2023/11/21 07:17:50;;;;;;;16.27;10.30;;;;;;;;;;6229993;23;20479;-85
2023/11/21 07:20:49;;;;;;;14.90;10.20;;;;;;;;;;6208650;23;20424;-84
2023/11/21 07:23:40;;;;;;;;;;;;;;;;;;;;;
2023/11/21 07:26:26;;;;;;;16.47;10.53;;;;;;;;;;6220544;23;20455;-86
2023/11/21 07:29:25;;;;;;;17.90;12.00;;;;;;;;;;6217289;23;20443;-84
2023/11/21 07:32:09;;;;;;;17.53;11.47;;;;;;;;;;6190817;23;20409;-84
2023/11/21 07:34:55;;;;;;;17.40;11.77;;;;;;;;;;6208540;23;20769;-85
2023/11/21 07:37:40;;;;;;;20.37;13.17;;;;;;;;;;6182945;23;20429;-84
2023/11/21 07:40:18;;;;;;;16.27;11.40;;;;;;;;;;6209131;23;20700;-83
2023/11/21 07:43:33;;;;;;;;;;;;;;;;;;;;;
2023/11/21 07:46:20;;;;;;;19.87;13.77;;;;;;;;;;6141118;23;20419;-86
2023/11/21 07:49:04;;;;;;;16.37;11.53;;;;;;;;;;6219526;23;20429;-84
2023/11/21 07:51:53;;;;;;;20.27;13.57;;;;;;;;;;6224169;23;20861;-87
2023/11/21 07:54:38;;;;;;;21.23;12.53;;;;;;;;;;6205452;23;20668;-87
2023/11/21 07:57:18;;;;;;;19.30;11.43;;;;;;;;;;6212467;23;20476;-86
2023/11/21 08:03:17;;;;;;;17.30;12.50;;;;;;;;;;6194020;23;20466;-85
2023/11/21 08:09:52;;;;;;;19.80;12.10;;;;;;;;;;6209416;23;20405;-83
2023/11/21 08:12:48;;;;;;;20.33;12.47;;;;;;;;;;6208827;23;20445;-85
2023/11/21 08:15:35;;;;;;;22.07;11.90;;;;;;;;;;6206043;23;20448;-85
2023/11/21 08:18:40;;;;;;;18.03;12.07;;;;;;;;;;6201529;23;20432;-85
2023/11/21 08:21:39;;;;;;;17.97;11.60;;;;;;;;;;6158084;23;20462;-87
2023/11/21 08:24:27;;;;;;;20.80;13.20;;;;;;;;;;6194566;23;20452;-85
2023/11/21 08:27:14;;;;;;;19.63;12.47;;;;;;;;;;6217401;23;20424;-87
2023/11/21 08:30:00;;;;;;;20.97;12.70;;;;;;;;;;6218919;23;20405;-89
2023/11/21 08:33:16;;;;;;;23.97;13.90;;;;;;;;;;6229248;23;20413;-86
2023/11/21 08:35:56;;;;;;;21.97;13.00;;;;;;;;;;6223587;23;20460;-87
2023/11/21 08:39:16;;;;;;;26.33;14.73;;;;;;;;;;6228911;23;20405;-88
2023/11/21 08:41:51;;;;;;;24.13;14.23;;;;;;;;;;6229485;23;20393;-85
2023/11/21 08:44:48;;;;;;;25.33;14.53;;;;;;;;;;6202208;23;20465;-84
2023/11/21 08:50:41;;;;;;;21.43;12.60;;;;;;;;;;6211920;23;20413;-85
2023/11/21 08:53:26;;;;;;;22.37;13.13;;;;;;;;;;6216595;23;20430;-86
2023/11/21 08:56:24;;;;;;;20.83;12.80;;;;;;;;;;6192401;23;20491;-87
2023/11/21 08:59:30;;;;;;;21.50;13.60;;;;;;;;;;6211311;23;20408;-87
2023/11/21 09:02:38;;;;;;;20.10;14.07;;;;;;;;;;6210596;23;20401;-87
2023/11/21 09:05:30;;;;;;;24.20;14.50;;;;;;;;;;6212284;23;20405;-85
2023/11/21 09:08:11;;;;;;;21.53;12.07;;;;;;;;;;6090646;23;20520;-85
2023/11/21 09:10:52;;;;;;;20.67;14.77;;;;;;;;;;6211306;23;20417;-86
2023/11/21 09:13:58;;;;;;;24.30;14.20;;;;;;;;;;6211061;23;20498;-84
2023/11/21 09:16:54;;;;;;;31.30;16.53;;;;;;;;;;6119532;23;20444;-84
2023/11/21 09:19:34;;;;;;;27.60;18.43;;;;;;;;;;6121786;23;20404;-85
2023/11/21 09:22:17;;;;;;;22.90;14.60;;;;;;;;;;6212229;23;20413;-88
2023/11/21 09:25:04;;;;;;;25.53;14.13;;;;;;;;;;6212441;23;20405;-86
2023/11/21 09:27:57;;;;;;;24.03;14.80;;;;;;;;;;6207379;23;20464;-85
2023/11/21 09:30:35;;;;;;;27.90;15.30;;;;;;;;;;6203727;23;20498;-84
2023/11/21 09:33:22;;;;;;;26.57;17.20;;;;;;;;;;6209706;23;20396;-84
2023/11/21 09:36:30;;;;;;;;;;;;;;;;;;;;;
2023/11/21 09:39:18;;;;;;;27.70;15.10;;;;;;;;;;6212669;23;20416;-86
2023/11/21 09:42:06;;;;;;;24.27;16.30;;;;;;;;;;6210876;23;20421;-87
2023/11/21 09:44:56;;;;;;;24.97;13.80;;;;;;;;;;6209028;23;20433;-85
2023/11/21 09:47:47;;;;;;;29.37;15.77;;;;;;;;;;6179703;23;20619;-88
2023/11/21 09:50:56;;;;;;;25.47;15.80;;;;;;;;;;6212723;23;20416;-83
2023/11/21 09:53:46;;;;;;;23.67;14.27;;;;;;;;;;6212825;23;20409;-87
2023/11/21 09:56:29;;;;;;;21.20;12.80;;;;;;;;;;6227793;23;20436;-87
2023/11/21 09:59:20;;;;;;;21.93;14.30;;;;;;;;;;6223721;23;20506;-86
2023/11/21 10:02:21;;;;;;;22.90;14.83;;;;;;;;;;6227827;23;20417;-88
2023/11/21 10:05:34;;;;;;;23.47;14.47;;;;;;;;;;6220510;23;20405;-87
2023/11/21 10:08:19;;;;;;;23.80;14.87;;;;;;;;;;6212407;23;20518;-87
2023/11/21 10:11:11;;;;;;;22.93;13.47;;;;;;;;;;6216880;23;20425;-86
2023/11/21 10:14:04;;;;;;;20.57;11.57;;;;;;;;;;6212723;23;20416;-85
2023/11/21 10:17:12;;;;;;;18.70;11.90;;;;;;;;;;6169730;23;20513;-85
2023/11/21 10:20:11;;;;;;;14.93;10.53;;;;;;;;;;6218843;23;20496;-87
2023/11/21 10:22:43;;;;;;;19.70;12.63;;;;;;;;;;6204428;23;20459;-84
2023/11/21 10:25:36;;;;;;;;;;;;;;;;;;;;;
2023/11/21 10:28:47;;;;;;;17.33;10.90;;;;;;;;;;6223100;23;20504;-84
2023/11/21 10:31:27;;;;;;;21.70;12.57;;;;;;;;;;6211754;23;20472;-82
2023/11/21 10:34:15;;;;;;;16.07;11.80;;;;;;;;;;6196588;23;20423;-84
2023/11/21 10:37:15;;;;;;;20.67;11.50;;;;;;;;;;6227529;23;20433;-88
2023/11/21 10:40:04;;;;;;;24.30;13.73;;;;;;;;;;6218678;23;20413;-87
2023/11/21 10:42:37;;;;;;;21.57;12.73;;;;;;;;;;6232261;23;20401;-87
2023/11/21 10:45:29;;;;;;;17.73;11.40;;;;;;;;;;6222591;23;20460;-87
2023/11/21 10:48:39;;;;;;;22.10;12.60;;;;;;;;;;6231682;23;20443;-86
2023/11/21 10:51:16;;;;;;;21.73;12.60;;;;;;;;;;6232705;23;20400;-85
2023/11/21 10:54:04;;;;;;;22.00;13.27;;;;;;;;;;6232180;23;20518;-85
2023/11/21 10:56:40;;;;;;;19.43;11.60;;;;;;;;;;6233331;23;20436;-86
2023/11/21 10:59:31;;;;;;;24.00;12.60;;;;;;;;;;6232084;23;20432;-84
2023/11/21 11:02:21;;;;;;;25.80;14.13;;;;;;;;;;6231364;23;20403;-84
2023/11/21 11:05:11;;;;;;;18.50;12.37;;;;;;;;;;6233849;23;20534;-84
2023/11/21 11:08:20;;;;;;;21.90;13.87;;;;;;;;;;6212161;23;20479;-85
2023/11/21 11:11:00;;;;;;;22.20;13.60;;;;;;;;;;6211978;23;20503;-83
2023/11/21 11:17:22;;;;;;;25.60;14.60;;;;;;;;;;6179793;23;20472;-84
2023/11/21 11:23:40;;;;;;;29.00;16.03;;;;;;;;;;6211700;23;20421;-85
2023/11/21 11:26:46;;;;;;;31.73;16.10;;;;;;;;;;6204695;23;20413;-84
2023/11/21 11:29:48;;;;;;;30.40;15.37;;;;;;;;;;6213252;23;20432;-87
2023/11/21 11:32:59;;;;;;;24.60;13.83;;;;;;;;;;6214180;23;20500;-86
2023/11/21 11:36:07;;;;;;;28.43;13.90;;;;;;;;;;6212762;23;20476;-84
2023/11/21 11:39:04;;;;;;;20.03;12.20;;;;;;;;;;6197330;23;20499;-85
2023/11/21 11:41:50;;;;;;;24.70;12.70;;;;;;;;;;6212346;23;20401;-86
2023/11/21 11:44:50;;;;;;;;;;;;;;;;;;;;;
2023/11/21 11:47:37;;;;;;;22.37;13.43;;;;;;;;;;6212981;23;20452;-86
2023/11/21 11:50:20;;;;;;;26.17;14.30;;;;;;;;;;6211398;23;21093;-85
2023/11/21 11:53:04;;;;;;;25.10;14.40;;;;;;;;;;6210638;23;20401;-87
2023/11/21 11:58:59;;;;;;;24.20;12.37;;;;;;;;;;6200551;22;20439;-85
2023/11/21 12:01:38;;;;;;;23.10;12.10;;;;;;;;;;6213048;23;20507;-85
2023/11/21 12:04:14;;;;;;;20.57;12.80;;;;;;;;;;6213392;23;20405;-87
2023/11/21 12:06:56;;;;;;;23.73;12.90;;;;;;;;;;6208437;23;20395;-87
2023/11/21 12:09:35;;;;;;;20.20;12.07;;;;;;;;;;6212887;23;20523;-86
2023/11/21 12:12:33;;;;;;;23.73;12.87;;;;;;;;;;6148435;23;20894;-87
2023/11/21 12:15:25;;;;;;;21.83;12.47;;;;;;;;;;6211349;23;20471;-85
2023/11/21 12:18:14;;;;;;;19.43;12.43;;;;;;;;;;6203503;23;20460;-86
2023/11/21 12:20:50;;;;;;;24.30;12.30;;;;;;;;;;6214754;23;20369;-87
2023/11/21 12:23:26;;;;;;;23.37;12.50;;;;;;;;;;6211686;23;20373;-85
2023/11/21 12:26:10;;;;;;;26.53;12.83;;;;;;;;;;6213105;23;20401;-87
2023/11/21 12:57:10;;;;;;;26.50;15.10;;;;;;;;;;6214178;23;20471;-88
2023/11/21 12:59:39;;;;;;;30.03;15.37;;;;;;;;;;6188374;23;20485;-85
2023/11/21 13:02:27;;;;;;;30.80;16.70;;;;;;;;;;6191581;23;20403;-85
2023/11/21 13:04:58;;;;;;;25.50;15.10;;;;;;;;;;6188605;23;20402;-85
2023/11/21 13:07:27;;;;;;;25.83;15.40;;;;;;;;;;6192253;23;20440;-86
2023/11/21 13:09:58;;;;;;;27.37;14.90;;;;;;;;;;6195680;23;20423;-86
2023/11/21 13:12:25;;;;;;;24.63;13.40;;;;;;;;;;6220513;23;20476;-84
2023/11/21 13:15:27;;;;;;;;;;;;;;;;;;;;;
2023/11/21 13:18:26;;;;;;;23.13;13.40;;;;;;;;;;6213612;23;20966;-86
2023/11/21 13:20:58;;;;;;;25.30;13.57;;;;;;;;;;6187702;23;20412;-87
2023/11/21 13:23:31;;;;;;;28.07;15.10;;;;;;;;;;6187360;23;20435;-85
2023/11/21 13:26:04;;;;;;;29.03;16.10;;;;;;;;;;6212302;23;20400;-87
2023/11/21 13:28:35;;;;;;;21.97;13.77;;;;;;;;;;6186364;23;20455;-87
2023/11/21 13:31:20;;;;;;;21.30;12.80;;;;;;;;;;6190512;23;20465;-87
2023/11/21 13:33:55;;;;;;;20.97;13.80;;;;;;;;;;6212821;23;20420;-87
2023/11/21 13:36:32;;;;;;;39.00;23.77;;;;;;;;;;6191630;23;20413;-84
2023/11/21 13:39:15;;;;;;;23.40;13.43;;;;;;;;;;6199888;23;20437;-88
2023/11/21 13:41:50;;;;;;;24.33;13.27;;;;;;;;;;6202122;23;20507;-87
2023/11/21 13:44:37;;;;;;;22.17;12.97;;;;;;;;;;6189767;23;20779;-85
2023/11/21 13:47:07;;;;;;;22.13;13.13;;;;;;;;;;6187377;23;20421;-86
2023/11/21 13:49:40;;;;;;;22.07;13.70;;;;;;;;;;6211487;23;20423;-86
2023/11/21 13:52:11;;;;;;;27.70;14.07;;;;;;;;;;6185488;23;20420;-85
2023/11/21 13:54:43;;;;;;;25.77;15.50;;;;;;;;;;6194763;23;20443;-86
2023/11/21 13:57:13;;;;;;;27.70;14.13;;;;;;;;;;6195320;23;20486;-87
2023/11/21 13:59:46;;;;;;;24.10;14.00;;;;;;;;;;6198886;23;20373;-86
2023/11/21 14:02:18;;;;;;;26.17;14.37;;;;;;;;;;6192682;23;20416;-86
2023/11/21 14:04:56;;;;;;;29.10;15.37;;;;;;;;;;6212401;23;20409;-86
2023/11/21 14:07:35;;;;;;;29.50;15.40;;;;;;;;;;6189901;23;20432;-85
2023/11/21 14:10:08;;;;;;;27.63;15.13;;;;;;;;;;6186563;23;20393;-85
2023/11/21 14:12:41;;;;;;;24.90;14.33;;;;;;;;;;6187335;23;20424;-89
2023/11/21 14:15:12;;;;;;;25.03;15.30;;;;;;;;;;6183889;23;20491;-87
2023/11/21 14:17:51;;;;;;;28.53;17.00;;;;;;;;;;6187483;23;21087;-88
2023/11/21 14:20:21;;;;;;;30.10;15.67;;;;;;;;;;6214144;23;20762;-85
2023/11/21 14:22:57;;;;;;;27.93;16.23;;;;;;;;;;6212971;23;20417;-87
2023/11/21 14:25:36;;;;;;;30.47;15.97;;;;;;;;;;6187254;23;20397;-87
2023/11/21 14:28:15;;;;;;;25.43;16.07;;;;;;;;;;6191466;23;20479;-85
2023/11/21 14:30:47;;;;;;;29.70;17.30;;;;;;;;;;6166764;23;20415;-86
2023/11/21 14:33:23;;;;;;;31.93;18.00;;;;;;;;;;6190983;23;20455;-88
2023/11/21 14:35:57;;;;;;;33.23;18.50;;;;;;;;;;6191110;23;20416;-87
2023/11/21 14:38:28;;;;;;;30.90;16.40;;;;;;;;;;6189491;23;20452;-84
2023/11/21 14:40:57;;;;;;;29.30;17.30;;;;;;;;;;6191889;23;21394;-85
2023/11/21 14:43:29;;;;;;;34.90;16.30;;;;;;;;;;6186269;23;20439;-86
2023/11/21 14:46:00;;;;;;;32.70;15.53;;;;;;;;;;6185890;23;20499;-85
2023/11/21 14:48:42;;;;;;;22.00;14.50;;;;;;;;;;6188987;23;20423;-84
2023/11/21 14:51:27;;;;;;;29.10;16.60;;;;;;;;;;6185509;23;20412;-87
2023/11/21 14:53:57;;;;;;;31.00;15.77;;;;;;;;;;6189940;23;20999;-85
2023/11/21 14:56:30;;;;;;;23.10;14.90;;;;;;;;;;6185044;23;20416;-87
2023/11/21 14:59:12;;;;;;;26.33;15.80;;;;;;;;;;6184488;23;20437;-84
2023/11/21 15:01:53;;;;;;;28.17;17.07;;;;;;;;;;6187256;23;20669;-82
2023/11/21 15:04:36;;;;;;;29.93;16.20;;;;;;;;;;6184724;23;21289;-84
2023/11/21 15:07:05;;;;;;;28.83;17.40;;;;;;;;;;6184978;23;20421;-85
2023/11/21 15:09:40;;;;;;;26.23;15.80;;;;;;;;;;6233573;23;20397;-88
2023/11/21 15:12:16;;;;;;;25.27;14.80;;;;;;;;;;6211440;23;20405;-87
2023/11/21 15:14:55;;;;;;;27.87;15.30;;;;;;;;;;6210307;23;20467;-86
2023/11/21 15:17:24;;;;;;;23.80;13.97;;;;;;;;;;6236242;23;20463;-86
2023/11/21 15:19:54;;;;;;;22.93;13.20;;;;;;;;;;6211082;23;20407;-86
2023/11/21 15:22:22;;;;;;;22.40;12.90;;;;;;;;;;6202706;23;20449;-85
2023/11/21 15:24:55;;;;;;;25.33;13.80;;;;;;;;;;6209625;23;20420;-86
2023/11/21 15:27:31;;;;;;;24.90;13.57;;;;;;;;;;6227367;23;20505;-85
2023/11/21 15:29:58;;;;;;;22.73;13.70;;;;;;;;;;6217983;23;20906;-86
2023/11/21 15:32:28;;;;;;;21.90;14.10;;;;;;;;;;6216100;23;20716;-85
2023/11/21 15:34:55;;;;;;;23.27;14.33;;;;;;;;;;6186833;23;20940;-85
2023/11/21 15:37:28;;;;;;;21.97;13.77;;;;;;;;;;6187947;23;20455;-86
2023/11/21 15:40:00;;;;;;;28.47;13.83;;;;;;;;;;6187655;23;20397;-85
2023/11/21 15:42:27;;;;;;;30.23;15.20;;;;;;;;;;6213240;23;20413;-84
2023/11/21 15:44:54;;;;;;;29.77;16.30;;;;;;;;;;6212736;23;20401;-86
2023/11/21 15:47:22;;;;;;;23.17;14.07;;;;;;;;;;6186252;23;20433;-86
2023/11/21 15:49:49;;;;;;;31.47;16.10;;;;;;;;;;6212695;23;20412;-85
2023/11/21 15:52:18;;;;;;;29.53;16.70;;;;;;;;;;6211471;23;20427;-85
2023/11/21 15:54:46;;;;;;;34.60;17.33;;;;;;;;;;6211880;23;20404;-86
2023/11/21 15:57:22;;;;;;;33.17;17.17;;;;;;;;;;6211925;23;20540;-87
2023/11/21 15:59:53;;;;;;;32.33;16.93;;;;;;;;;;6185756;23;20401;-85
2023/11/21 16:02:23;;;;;;;29.40;16.50;;;;;;;;;;6184966;23;20440;-86
2023/11/21 16:04:59;;;;;;;26.47;14.27;;;;;;;;;;6183936;23;20416;-85
2023/11/21 16:07:27;;;;;;;23.97;14.03;;;;;;;;;;6186340;23;20460;-86
2023/11/21 16:10:19;;;;;;;20.50;12.23;;;;;;;;;;6187460;23;20400;-85
2023/11/21 16:12:49;;;;;;;19.77;12.20;;;;;;;;;;6191295;23;20408;-86
2023/11/21 16:15:18;;;;;;;19.07;12.50;;;;;;;;;;6185028;23;20413;-85
2023/11/21 16:17:51;;;;;;;22.07;11.77;;;;;;;;;;6185277;23;20448;-84
2023/11/21 16:20:31;;;;;;;22.77;11.20;;;;;;;;;;6187422;23;20405;-85
2023/11/21 16:23:04;;;;;;;17.07;11.53;;;;;;;;;;6185902;23;20503;-85
2023/11/21 16:25:31;;;;;;;15.47;9.63;;;;;;;;;;6191853;23;20958;-86
2023/11/21 16:28:03;;;;;;;16.00;9.27;;;;;;;;;;6184190;23;20445;-86
2023/11/21 16:30:35;;;;;;;14.87;9.90;;;;;;;;;;6185191;23;20473;-86
2023/11/21 16:33:05;;;;;;;14.67;10.43;;;;;;;;;;6185772;23;20479;-85
2023/11/21 16:35:39;;;;;;;12.20;8.50;;;;;;;;;;6185733;23;20425;-86
2023/11/21 16:38:16;;;;;;;14.03;8.80;;;;;;;;;;6186300;23;20456;-86
2023/11/21 16:40:49;;;;;;;12.53;9.03;;;;;;;;;;6183347;23;20493;-87
2023/11/21 16:43:22;;;;;;;12.97;8.33;;;;;;;;;;6210579;23;20458;-87
2023/11/21 16:45:53;;;;;;;11.93;7.80;;;;;;;;;;6184432;23;20412;-86
2023/11/21 16:48:24;;;;;;;9.47;7.30;;;;;;;;;;6183131;23;20826;-86
2023/11/21 16:51:03;;;;;;;11.00;7.67;;;;;;;;;;6186338;23;20416;-87
2023/11/21 16:53:31;;;;;;;11.90;8.27;;;;;;;;;;6181795;23;20424;-86
2023/11/21 16:56:00;;;;;;;14.50;8.13;;;;;;;;;;6212178;23;20423;-87
2023/11/21 16:58:29;;;;;;;11.60;8.20;;;;;;;;;;6225279;23;20471;-87
2023/11/21 17:00:57;;;;;;;12.03;8.43;;;;;;;;;;6192811;23;20413;-85
2023/11/21 17:03:26;;;;;;;13.60;9.57;;;;;;;;;;6183429;23;20421;-85
2023/11/21 17:09:59;;;;;;;14.00;9.97;;;;;;;;;;6062883;23;20457;-83
2023/11/21 17:15:53;;;;;;;13.30;8.87;;;;;;;;;;5984432;23;20511;-82
2023/11/21 17:18:23;;;;;;;12.90;8.03;;;;;;;;;;6056452;23;21224;-86
2023/11/21 17:20:55;;;;;;;14.00;9.20;;;;;;;;;;6144195;23;20423;-86
2023/11/21 17:23:27;;;;;;;13.73;8.53;;;;;;;;;;6181236;23;20459;-84
2023/11/21 17:25:57;;;;;;;14.03;8.87;;;;;;;;;;6210479;23;20386;-86